Time;durP1;ratioP1;P1;durP2;ratioP2;P2;SDS_P1;SDS_P2;PMS_P1;PMS_P2;Temp;Humidity;BMP_temperature;BMP_pressure;BME280_temperature;BME280_humidity;BME280_pressure;Samples;Min_cycle;Max_cycle;Signal;HPM_P1;HPM_P2
2024/03/03 00:00:29;;;;;;;5.20;1.67;;;;;;;;;;5018648;28;20053;-74
2024/03/03 00:02:57;;;;;;;4.72;1.90;;;;;;;;;;5021784;28;20077;-74
2024/03/03 00:05:24;;;;;;;4.38;1.80;;;;;;;;;;5020709;28;20053;-69
2024/03/03 00:07:51;;;;;;;6.65;2.22;;;;;;;;;;5011964;28;20064;-70
2024/03/03 00:10:19;;;;;;;4.95;1.92;;;;;;;;;;5020583;28;20138;-72
2024/03/03 00:12:46;;;;;;;4.20;1.65;;;;;;;;;;5012888;28;20054;-72
2024/03/03 00:15:13;;;;;;;4.72;2.30;;;;;;;;;;5005739;28;20112;-73
2024/03/03 00:17:40;;;;;;;5.55;1.90;;;;;;;;;;5000875;28;20060;-69
2024/03/03 00:20:09;;;;;;;6.10;2.25;;;;;;;;;;5000349;28;20054;-70
2024/03/03 00:22:36;;;;;;;7.95;2.40;;;;;;;;;;5008182;28;20077;-71
2024/03/03 00:25:04;;;;;;;7.30;2.17;;;;;;;;;;5011290;28;20188;-71
2024/03/03 00:27:31;;;;;;;7.18;2.88;;;;;;;;;;5002434;28;20057;-73
2024/03/03 00:29:58;;;;;;;8.82;2.30;;;;;;;;;;5002296;28;20073;-71
2024/03/03 00:32:25;;;;;;;16.35;6.00;;;;;;;;;;5009640;28;20042;-68
2024/03/03 00:34:52;;;;;;;9.18;3.35;;;;;;;;;;5007729;28;20042;-73
2024/03/03 00:37:20;;;;;;;7.70;2.67;;;;;;;;;;5032232;28;20072;-72
2024/03/03 00:39:49;;;;;;;6.20;2.47;;;;;;;;;;5004693;28;20308;-68
2024/03/03 00:42:16;;;;;;;6.78;2.40;;;;;;;;;;5007753;28;20115;-73
2024/03/03 00:44:43;;;;;;;6.07;2.30;;;;;;;;;;5010679;28;20068;-70
2024/03/03 00:47:10;;;;;;;6.15;2.50;;;;;;;;;;5006174;28;20049;-70
2024/03/03 00:49:37;;;;;;;6.57;2.08;;;;;;;;;;5008626;28;20045;-72
2024/03/03 00:52:06;;;;;;;5.32;1.98;;;;;;;;;;5002973;28;20045;-69
2024/03/03 00:54:34;;;;;;;6.78;2.78;;;;;;;;;;5011808;28;20052;-71
2024/03/03 00:57:03;;;;;;;6.55;2.15;;;;;;;;;;5001723;28;20067;-72
2024/03/03 00:59:30;;;;;;;4.80;2.25;;;;;;;;;;5007558;28;20072;-70
2024/03/03 01:01:57;;;;;;;7.20;2.05;;;;;;;;;;5001253;28;20065;-68
2024/03/03 01:04:24;;;;;;;6.15;2.28;;;;;;;;;;5008448;28;20057;-72
2024/03/03 01:06:51;;;;;;;5.07;2.22;;;;;;;;;;4998531;28;20057;-73
2024/03/03 01:09:18;;;;;;;5.45;2.00;;;;;;;;;;5009020;28;20052;-73
2024/03/03 01:11:47;;;;;;;6.20;2.25;;;;;;;;;;5022175;28;20185;-70
2024/03/03 01:14:13;;;;;;;;;;;;;;;;;;5002206;28;20050;-72
2024/03/03 01:16:40;;;;;;;8.48;3.22;;;;;;;;;;5004347;28;19929;-70
2024/03/03 01:19:07;;;;;;;5.95;2.33;;;;;;;;;;5006018;28;20064;-76
2024/03/03 01:21:34;;;;;;;6.47;2.75;;;;;;;;;;5008343;28;20057;-68
2024/03/03 01:24:01;;;;;;;5.35;2.47;;;;;;;;;;5003369;28;20061;-74
2024/03/03 01:26:28;;;;;;;13.88;4.45;;;;;;;;;;5001465;28;20066;-71
2024/03/03 01:28:56;;;;;;;6.35;2.67;;;;;;;;;;5005452;28;20061;-69
2024/03/03 01:31:24;;;;;;;6.68;2.47;;;;;;;;;;5007479;28;20057;-72
2024/03/03 01:33:54;;;;;;;7.00;2.33;;;;;;;;;;5004445;28;20045;-70
2024/03/03 01:36:21;;;;;;;5.32;2.28;;;;;;;;;;5002063;28;20057;-71
2024/03/03 01:38:48;;;;;;;6.90;2.38;;;;;;;;;;5004353;28;20068;-73
2024/03/03 01:41:15;;;;;;;7.38;2.75;;;;;;;;;;5007896;28;20073;-67
2024/03/03 01:43:43;;;;;;;5.20;2.55;;;;;;;;;;5014447;28;21006;-70
2024/03/03 01:46:12;;;;;;;;;;;;;;;;;;4999324;28;20592;-69
2024/03/03 01:48:39;;;;;;;5.57;2.38;;;;;;;;;;5004344;28;20026;-69
2024/03/03 01:51:06;;;;;;;6.88;2.90;;;;;;;;;;5004406;28;20080;-73
2024/03/03 01:53:34;;;;;;;7.57;2.72;;;;;;;;;;5010094;28;20053;-75
2024/03/03 01:56:03;;;;;;;6.90;2.60;;;;;;;;;;4999798;28;20135;-72
2024/03/03 01:58:30;;;;;;;9.57;2.90;;;;;;;;;;4994826;28;20058;-74
2024/03/03 02:01:00;;;;;;;6.72;2.45;;;;;;;;;;5003945;28;20242;-72
2024/03/03 02:03:30;;;;;;;7.40;2.70;;;;;;;;;;5005450;28;20053;-74
2024/03/03 02:05:57;;;;;;;5.40;2.50;;;;;;;;;;4994919;28;20079;-76
2024/03/03 02:08:24;;;;;;;7.45;2.63;;;;;;;;;;4996530;28;20073;-72
2024/03/03 02:10:51;;;;;;;7.15;2.92;;;;;;;;;;5004291;28;20054;-70
2024/03/03 02:13:18;;;;;;;7.85;2.97;;;;;;;;;;5006922;28;20053;-74
2024/03/03 02:15:48;;;;;;;5.90;2.60;;;;;;;;;;5033455;28;20049;-71
2024/03/03 02:18:17;;;;;;;7.70;2.97;;;;;;;;;;5021736;28;20136;-71
2024/03/03 02:20:46;;;;;;;7.13;2.72;;;;;;;;;;5004639;28;20160;-72
2024/03/03 02:23:14;;;;;;;7.32;3.05;;;;;;;;;;5008835;28;20049;-71
2024/03/03 02:25:42;;;;;;;9.02;2.65;;;;;;;;;;5004176;28;20154;-69
2024/03/03 02:28:10;;;;;;;7.05;2.78;;;;;;;;;;4995853;28;20056;-69
2024/03/03 02:30:37;;;;;;;8.15;3.17;;;;;;;;;;5009489;28;20056;-71
2024/03/03 02:33:04;;;;;;;10.00;3.20;;;;;;;;;;5006534;28;20064;-71
2024/03/03 02:35:30;;;;;;;6.72;2.75;;;;;;;;;;5040379;28;20061;-72
2024/03/03 02:37:57;;;;;;;14.93;6.10;;;;;;;;;;5003392;28;20088;-71
2024/03/03 02:40:26;;;;;;;8.82;3.33;;;;;;;;;;5008006;28;20100;-70
2024/03/03 02:42:52;;;;;;;16.63;6.32;;;;;;;;;;5010794;28;20057;-71
2024/03/03 02:45:19;;;;;;;8.27;3.28;;;;;;;;;;5011508;28;20069;-71
2024/03/03 02:47:48;;;;;;;12.00;3.53;;;;;;;;;;5002189;28;20476;-74
2024/03/03 02:50:15;;;;;;;9.00;3.72;;;;;;;;;;5004559;28;20065;-71
2024/03/03 02:52:41;;;;;;;12.23;3.33;;;;;;;;;;5010592;28;20090;-68
2024/03/03 02:57:35;;;;;;;9.07;3.27;;;;;;;;;;5436439;23;20057;-66
2024/03/03 03:00:03;;;;;;;10.27;3.10;;;;;;;;;;4999562;28;20239;-68
2024/03/03 03:02:30;;;;;;;6.85;3.20;;;;;;;;;;4975304;28;20153;-68
2024/03/03 03:04:58;;;;;;;10.85;3.95;;;;;;;;;;5001623;28;20052;-67
2024/03/03 03:07:24;;;;;;;7.18;3.60;;;;;;;;;;4993721;28;20282;-66
2024/03/03 03:09:51;;;;;;;7.50;3.13;;;;;;;;;;5001763;28;20049;-66
2024/03/03 03:12:18;;;;;;;8.02;3.55;;;;;;;;;;5029881;28;20068;-66
2024/03/03 03:14:46;;;;;;;13.23;3.33;;;;;;;;;;5001468;28;20072;-65
2024/03/03 03:17:13;;;;;;;8.23;3.42;;;;;;;;;;5027448;28;20077;-69
2024/03/03 03:19:39;;;;;;;12.13;4.03;;;;;;;;;;5001033;28;20137;-65
2024/03/03 03:22:06;;;;;;;8.50;3.72;;;;;;;;;;4991745;28;20053;-67
2024/03/03 03:24:33;;;;;;;7.35;3.35;;;;;;;;;;5015303;28;21098;-66
2024/03/03 03:27:00;;;;;;;10.70;3.67;;;;;;;;;;5002770;28;20053;-69
2024/03/03 03:29:26;;;;;;;9.02;3.80;;;;;;;;;;4993085;28;20153;-66
2024/03/03 03:31:55;;;;;;;11.18;4.13;;;;;;;;;;5030860;28;20054;-68
2024/03/03 03:34:21;;;;;;;16.23;4.18;;;;;;;;;;5004798;28;20065;-66
2024/03/03 03:36:48;;;;;;;10.50;3.92;;;;;;;;;;5034577;28;21113;-68
2024/03/03 03:39:15;;;;;;;9.45;3.67;;;;;;;;;;5000129;28;20050;-68
2024/03/03 03:41:46;;;;;;;10.90;3.65;;;;;;;;;;4995096;28;20041;-67
2024/03/03 03:44:13;;;;;;;9.63;3.50;;;;;;;;;;5005125;28;20046;-67
2024/03/03 03:46:40;;;;;;;11.45;3.80;;;;;;;;;;5001010;28;20049;-66
2024/03/03 03:49:10;;;;;;;9.88;3.58;;;;;;;;;;5004603;28;20046;-67
2024/03/03 03:51:36;;;;;;;11.35;4.00;;;;;;;;;;4988675;28;20181;-69
2024/03/03 03:54:03;;;;;;;9.48;3.88;;;;;;;;;;5016428;28;20061;-68
2024/03/03 03:56:30;;;;;;;9.85;4.15;;;;;;;;;;5005230;28;20077;-68
2024/03/03 03:58:58;;;;;;;8.65;3.78;;;;;;;;;;5004413;28;20050;-68
2024/03/03 04:01:25;;;;;;;11.52;3.83;;;;;;;;;;4997144;28;20479;-67
2024/03/03 04:03:51;;;;;;;8.00;3.53;;;;;;;;;;5039786;28;20067;-68
2024/03/03 04:06:24;;;;;;;10.40;4.22;;;;;;;;;;5040033;28;20076;-67
2024/03/03 04:08:51;;;;;;;9.35;4.30;;;;;;;;;;5006647;28;20061;-68
2024/03/03 04:11:18;;;;;;;10.30;4.25;;;;;;;;;;5026994;28;21419;-68
2024/03/03 04:13:47;;;;;;;14.48;4.18;;;;;;;;;;5005967;28;21259;-67
2024/03/03 04:16:14;;;;;;;10.18;4.15;;;;;;;;;;5004572;28;20113;-68
2024/03/03 04:18:40;;;;;;;8.35;3.80;;;;;;;;;;5008121;28;20064;-67
2024/03/03 04:21:07;;;;;;;10.90;3.90;;;;;;;;;;5032258;28;20064;-67
2024/03/03 04:23:37;;;;;;;10.90;4.40;;;;;;;;;;5005142;28;20062;-68
2024/03/03 04:26:06;;;;;;;11.40;4.32;;;;;;;;;;5039140;28;20053;-68
2024/03/03 04:28:33;;;;;;;10.38;4.68;;;;;;;;;;5040641;28;20084;-67
2024/03/03 04:31:00;;;;;;;10.95;4.18;;;;;;;;;;4994779;28;20062;-67
2024/03/03 04:33:26;;;;;;;9.38;4.10;;;;;;;;;;5001614;28;20273;-67
2024/03/03 04:35:53;;;;;;;13.07;4.53;;;;;;;;;;5009304;28;20081;-68
2024/03/03 04:38:20;;;;;;;10.05;4.18;;;;;;;;;;5009620;28;20057;-67
2024/03/03 04:40:48;;;;;;;12.32;4.38;;;;;;;;;;5008288;28;20062;-66
2024/03/03 04:43:14;;;;;;;7.30;3.10;;;;;;;;;;4997674;28;20049;-67
2024/03/03 04:45:41;;;;;;;9.63;3.60;;;;;;;;;;5005076;28;20085;-67
2024/03/03 04:48:08;;;;;;;8.93;3.35;;;;;;;;;;5007694;28;20066;-67
2024/03/03 04:50:37;;;;;;;11.20;4.00;;;;;;;;;;5007614;28;20057;-69
2024/03/03 04:53:04;;;;;;;9.27;3.80;;;;;;;;;;5007475;28;20088;-67
2024/03/03 04:55:31;;;;;;;8.57;3.53;;;;;;;;;;5002167;28;20077;-67
2024/03/03 04:57:59;;;;;;;9.77;3.65;;;;;;;;;;5006306;28;20073;-68
2024/03/03 05:00:26;;;;;;;9.05;3.47;;;;;;;;;;5007890;28;20072;-68
2024/03/03 05:02:52;;;;;;;10.68;3.63;;;;;;;;;;5003045;28;20154;-67
2024/03/03 05:05:20;;;;;;;10.25;4.32;;;;;;;;;;5002674;28;20054;-68
2024/03/03 05:07:47;;;;;;;9.48;3.80;;;;;;;;;;5008665;28;20068;-68
2024/03/03 05:10:13;;;;;;;9.57;4.00;;;;;;;;;;5007618;28;20049;-67
2024/03/03 05:12:41;;;;;;;11.10;4.35;;;;;;;;;;5041332;28;20064;-66
2024/03/03 05:15:10;;;;;;;9.45;3.88;;;;;;;;;;5042476;28;20053;-68
2024/03/03 05:17:37;;;;;;;10.68;4.43;;;;;;;;;;5008591;28;20064;-66
2024/03/03 05:20:05;;;;;;;9.00;4.50;;;;;;;;;;5008807;28;20049;-68
2024/03/03 05:22:32;;;;;;;7.03;3.65;;;;;;;;;;5004401;28;20088;-68
2024/03/03 05:24:58;;;;;;;9.45;4.05;;;;;;;;;;5010294;28;20156;-65
2024/03/03 05:27:25;;;;;;;10.02;3.75;;;;;;;;;;5038048;28;20057;-67
2024/03/03 05:29:52;;;;;;;8.07;3.53;;;;;;;;;;5009829;28;20061;-67
2024/03/03 05:32:20;;;;;;;6.53;3.10;;;;;;;;;;5005601;28;20131;-68
2024/03/03 05:34:47;;;;;;;9.02;3.90;;;;;;;;;;5006857;28;20053;-70
2024/03/03 05:37:14;;;;;;;11.43;3.42;;;;;;;;;;5005740;28;20120;-69
2024/03/03 05:39:40;;;;;;;14.27;3.65;;;;;;;;;;5039021;28;20285;-67
2024/03/03 05:42:07;;;;;;;7.47;3.53;;;;;;;;;;4989052;28;20927;-67
2024/03/03 05:44:34;;;;;;;11.88;4.20;;;;;;;;;;5008210;28;20057;-67
2024/03/03 05:47:01;;;;;;;9.57;3.70;;;;;;;;;;5008860;28;20057;-67
2024/03/03 05:49:28;;;;;;;8.27;3.40;;;;;;;;;;5036120;28;20061;-66
2024/03/03 05:51:55;;;;;;;7.05;3.25;;;;;;;;;;5002210;28;20140;-66
2024/03/03 05:54:22;;;;;;;7.97;3.60;;;;;;;;;;5012082;28;20049;-69
2024/03/03 05:56:49;;;;;;;8.50;3.53;;;;;;;;;;5010122;28;20049;-69
2024/03/03 05:59:15;;;;;;;10.82;3.90;;;;;;;;;;5001830;28;20140;-68
2024/03/03 06:01:47;;;;;;;7.75;3.47;;;;;;;;;;5003451;28;20068;-67
2024/03/03 06:04:15;;;;;;;7.82;3.10;;;;;;;;;;5007663;28;20062;-68
2024/03/03 06:06:43;;;;;;;10.10;3.58;;;;;;;;;;5006011;28;20061;-67
2024/03/03 06:09:11;;;;;;;9.23;3.90;;;;;;;;;;5002290;28;20037;-69
2024/03/03 06:11:38;;;;;;;8.65;3.35;;;;;;;;;;4998915;28;20065;-66
2024/03/03 06:14:07;;;;;;;7.35;3.38;;;;;;;;;;5004199;28;20053;-68
2024/03/03 06:16:35;;;;;;;10.07;3.85;;;;;;;;;;5005609;28;20132;-69
2024/03/03 06:19:01;;;;;;;8.93;3.63;;;;;;;;;;5006815;28;20077;-68
2024/03/03 06:21:28;;;;;;;8.18;3.53;;;;;;;;;;4990573;28;20137;-67
2024/03/03 06:23:56;;;;;;;11.80;3.40;;;;;;;;;;5009193;28;20057;-67
2024/03/03 06:26:24;;;;;;;8.93;3.53;;;;;;;;;;5006870;28;20072;-69
2024/03/03 06:28:52;;;;;;;9.63;3.40;;;;;;;;;;5008157;28;20064;-70
2024/03/03 06:31:21;;;;;;;9.15;3.85;;;;;;;;;;4998022;28;20065;-69
2024/03/03 06:33:47;;;;;;;;;;;;;;;;;;5009994;28;20061;-67
2024/03/03 06:36:18;;;;;;;11.00;3.60;;;;;;;;;;5010247;28;19968;-67
2024/03/03 06:38:45;;;;;;;10.02;4.10;;;;;;;;;;5009663;28;20061;-69
2024/03/03 06:41:16;;;;;;;10.75;3.92;;;;;;;;;;5001446;28;20119;-68
2024/03/03 06:43:43;;;;;;;9.73;4.55;;;;;;;;;;5007787;28;20057;-69
2024/03/03 06:46:10;;;;;;;9.18;3.88;;;;;;;;;;5006566;28;20049;-69
2024/03/03 06:48:37;;;;;;;8.07;3.38;;;;;;;;;;5009199;28;20069;-66
2024/03/03 06:51:07;;;;;;;9.38;3.90;;;;;;;;;;4998770;28;20057;-68
2024/03/03 06:53:37;;;;;;;11.20;4.10;;;;;;;;;;5017055;28;20066;-66
2024/03/03 06:56:04;;;;;;;13.23;4.20;;;;;;;;;;5007878;28;20156;-67
2024/03/03 06:58:32;;;;;;;12.32;4.30;;;;;;;;;;5008115;28;20066;-69
2024/03/03 07:00:59;;;;;;;11.50;4.10;;;;;;;;;;5003827;28;20142;-68
2024/03/03 07:03:56;;;;;;;11.57;4.07;;;;;;;;;;5002989;28;20123;-68
2024/03/03 07:06:23;;;;;;;11.57;4.32;;;;;;;;;;5008350;28;20155;-68
2024/03/03 07:08:50;;;;;;;9.05;3.65;;;;;;;;;;5006844;28;20100;-66
2024/03/03 07:11:16;;;;;;;9.50;4.10;;;;;;;;;;5001142;28;20068;-68
2024/03/03 07:13:44;;;;;;;9.15;3.75;;;;;;;;;;5007427;28;20061;-68
2024/03/03 07:16:11;;;;;;;10.52;4.20;;;;;;;;;;5005146;28;20045;-68
2024/03/03 07:18:38;;;;;;;10.13;3.88;;;;;;;;;;5042237;28;20049;-68
2024/03/03 07:21:05;;;;;;;8.57;3.72;;;;;;;;;;4982200;28;20103;-69
2024/03/03 07:23:32;;;;;;;6.85;3.13;;;;;;;;;;5020244;28;20103;-67
2024/03/03 07:25:59;;;;;;;10.00;3.95;;;;;;;;;;5012640;28;20153;-68
2024/03/03 07:28:25;;;;;;;9.55;3.63;;;;;;;;;;5012026;28;20235;-68
2024/03/03 07:30:55;;;;;;;11.48;4.15;;;;;;;;;;5009761;28;20096;-68
2024/03/03 07:33:21;;;;;;;12.02;4.05;;;;;;;;;;5005439;28;20069;-66
2024/03/03 07:35:48;;;;;;;10.55;4.10;;;;;;;;;;5011509;28;20123;-67
2024/03/03 07:38:15;;;;;;;10.85;3.85;;;;;;;;;;5011472;28;20072;-66
2024/03/03 07:40:44;;;;;;;10.45;4.60;;;;;;;;;;5010052;28;20064;-68
2024/03/03 07:43:12;;;;;;;;;;;;;;;;;;5013379;28;20203;-66
2024/03/03 07:45:38;;;;;;;10.60;3.78;;;;;;;;;;5011043;28;19928;-66
2024/03/03 07:48:08;;;;;;;9.68;3.80;;;;;;;;;;5011839;28;20065;-68
2024/03/03 07:50:35;;;;;;;9.77;4.00;;;;;;;;;;5010792;28;20057;-68
2024/03/03 07:53:01;;;;;;;10.95;4.13;;;;;;;;;;5007485;28;20069;-68
2024/03/03 07:55:28;;;;;;;11.40;4.40;;;;;;;;;;5005176;28;20152;-66
2024/03/03 07:57:55;;;;;;;11.35;4.25;;;;;;;;;;5044565;28;20060;-67
2024/03/03 08:00:22;;;;;;;10.25;4.05;;;;;;;;;;5011652;28;20053;-67
2024/03/03 08:02:48;;;;;;;11.27;4.43;;;;;;;;;;4975548;28;20064;-66
2024/03/03 08:05:17;;;;;;;12.20;4.30;;;;;;;;;;5010041;28;20152;-68
2024/03/03 08:07:44;;;;;;;11.82;4.53;;;;;;;;;;5011324;28;20049;-68
2024/03/03 08:10:11;;;;;;;15.43;4.72;;;;;;;;;;5010485;28;20053;-66
2024/03/03 08:12:38;;;;;;;11.10;4.63;;;;;;;;;;4999079;28;20064;-67
2024/03/03 08:15:08;;;;;;;11.65;5.15;;;;;;;;;;5001075;28;20049;-67
2024/03/03 08:17:35;;;;;;;13.25;4.88;;;;;;;;;;5006487;28;20053;-67
2024/03/03 08:20:03;;;;;;;11.55;5.20;;;;;;;;;;5011635;28;20068;-66
2024/03/03 08:22:31;;;;;;;;;;;;;;;;;;4979805;28;20128;-68
2024/03/03 08:24:59;;;;;;;10.32;4.72;;;;;;;;;;5009681;28;20063;-67
2024/03/03 08:27:26;;;;;;;10.17;4.60;;;;;;;;;;5005741;28;20052;-67
2024/03/03 08:29:53;;;;;;;11.73;4.43;;;;;;;;;;5006983;28;20155;-67
2024/03/03 08:32:23;;;;;;;11.68;5.38;;;;;;;;;;4985067;28;20049;-68
2024/03/03 08:34:49;;;;;;;11.27;4.90;;;;;;;;;;5005284;28;20073;-68
2024/03/03 08:37:19;;;;;;;11.90;4.50;;;;;;;;;;5005263;28;20045;-68
2024/03/03 08:39:47;;;;;;;12.75;4.90;;;;;;;;;;5013479;28;20077;-68
2024/03/03 08:42:17;;;;;;;12.77;4.32;;;;;;;;;;4997713;28;20046;-68
2024/03/03 08:44:44;;;;;;;10.02;4.32;;;;;;;;;;5039704;28;20062;-68
2024/03/03 08:47:11;;;;;;;10.60;4.15;;;;;;;;;;5007477;28;20053;-68
2024/03/03 08:49:40;;;;;;;12.32;4.40;;;;;;;;;;5010575;28;20496;-68
2024/03/03 08:52:07;;;;;;;10.48;4.15;;;;;;;;;;4976082;28;20061;-68
2024/03/03 08:54:34;;;;;;;12.48;4.30;;;;;;;;;;5009412;28;20068;-67
2024/03/03 08:57:05;;;;;;;10.50;3.90;;;;;;;;;;5007054;28;20496;-67
2024/03/03 08:59:32;;;;;;;13.07;4.38;;;;;;;;;;5005214;28;20054;-68
2024/03/03 09:01:59;;;;;;;9.80;3.83;;;;;;;;;;4977457;28;20106;-67
2024/03/03 09:04:26;;;;;;;11.18;4.78;;;;;;;;;;5018204;28;20046;-68
2024/03/03 09:06:53;;;;;;;14.02;5.78;;;;;;;;;;5009105;28;20053;-68
2024/03/03 09:09:22;;;;;;;12.90;4.90;;;;;;;;;;5006760;28;20060;-70
2024/03/03 09:11:49;;;;;;;11.73;4.88;;;;;;;;;;4991764;28;20057;-68
2024/03/03 09:14:18;;;;;;;12.95;5.03;;;;;;;;;;5018345;28;20196;-68
2024/03/03 09:16:45;;;;;;;13.30;6.07;;;;;;;;;;5008629;28;20084;-69
2024/03/03 09:19:14;;;;;;;11.63;4.90;;;;;;;;;;5006619;28;20099;-68
2024/03/03 09:21:42;;;;;;;11.98;5.00;;;;;;;;;;5004278;28;20230;-67
2024/03/03 09:24:11;;;;;;;13.40;5.20;;;;;;;;;;5009729;28;20046;-67
2024/03/03 09:26:39;;;;;;;10.50;4.80;;;;;;;;;;5011311;28;20056;-67
2024/03/03 09:29:06;;;;;;;12.63;5.47;;;;;;;;;;5007375;28;20065;-67
2024/03/03 09:31:34;;;;;;;12.98;4.63;;;;;;;;;;4979794;28;20050;-67
2024/03/03 09:34:01;;;;;;;12.10;5.15;;;;;;;;;;5018459;28;20103;-67
2024/03/03 09:36:28;;;;;;;14.45;4.75;;;;;;;;;;5008029;28;20053;-68
2024/03/03 09:38:54;;;;;;;10.63;4.50;;;;;;;;;;5006037;28;20057;-69
2024/03/03 09:41:21;;;;;;;12.57;5.28;;;;;;;;;;4985186;28;20124;-67
2024/03/03 09:43:52;;;;;;;14.07;5.50;;;;;;;;;;4991458;28;20053;-67
2024/03/03 09:46:20;;;;;;;12.68;5.13;;;;;;;;;;5008492;28;20046;-67
2024/03/03 09:48:49;;;;;;;14.15;5.03;;;;;;;;;;5008860;28;20064;-68
2024/03/03 09:51:19;;;;;;;13.48;5.20;;;;;;;;;;5000497;28;20176;-68
2024/03/03 09:53:46;;;;;;;13.30;5.22;;;;;;;;;;5037228;28;20140;-66
2024/03/03 09:56:17;;;;;;;13.20;5.38;;;;;;;;;;5037049;28;20061;-68
2024/03/03 09:58:44;;;;;;;13.57;5.38;;;;;;;;;;5006611;28;20080;-66
2024/03/03 10:01:14;;;;;;;12.77;5.72;;;;;;;;;;5037293;28;20057;-68
2024/03/03 10:03:44;;;;;;;15.27;5.88;;;;;;;;;;5024485;28;20096;-69
2024/03/03 10:06:16;;;;;;;12.23;5.25;;;;;;;;;;5008354;28;20056;-69
2024/03/03 10:08:46;;;;;;;13.05;5.82;;;;;;;;;;5007633;28;20111;-69
2024/03/03 10:11:22;;;;;;;12.65;5.25;;;;;;;;;;5001192;28;20088;-68
2024/03/03 10:13:49;;;;;;;14.90;5.90;;;;;;;;;;5012519;28;20159;-69
2024/03/03 10:16:19;;;;;;;14.48;6.13;;;;;;;;;;5007357;28;20049;-68
2024/03/03 10:19:03;;;;;;;75.70;29.25;;;;;;;;;;5011304;28;20072;-67
2024/03/03 10:21:35;;;;;;;17.63;6.90;;;;;;;;;;5017700;28;20060;-66
2024/03/03 10:24:23;;;;;;;13.88;6.55;;;;;;;;;;5028592;28;20064;-68
2024/03/03 10:26:50;;;;;;;15.80;6.15;;;;;;;;;;5002558;28;20897;-68
2024/03/03 10:29:19;;;;;;;13.80;5.25;;;;;;;;;;5028209;28;20072;-69
2024/03/03 10:31:46;;;;;;;15.77;5.28;;;;;;;;;;4986692;28;20064;-67
2024/03/03 10:34:15;;;;;;;12.20;5.30;;;;;;;;;;5019664;28;20061;-68
2024/03/03 10:36:44;;;;;;;13.73;5.82;;;;;;;;;;5004758;28;20049;-68
2024/03/03 10:39:14;;;;;;;12.15;5.43;;;;;;;;;;5004217;28;20093;-67
2024/03/03 10:41:41;;;;;;;13.18;5.40;;;;;;;;;;5006339;28;20053;-69
2024/03/03 10:44:17;;;;;;;15.27;5.88;;;;;;;;;;5004919;28;20118;-67
2024/03/03 10:46:47;;;;;;;12.13;4.68;;;;;;;;;;5006762;28;20107;-67
2024/03/03 10:49:14;;;;;;;11.70;4.88;;;;;;;;;;5006216;28;21023;-69
2024/03/03 10:51:41;;;;;;;20.50;8.02;;;;;;;;;;5006190;28;20057;-66
2024/03/03 10:54:10;;;;;;;15.60;6.15;;;;;;;;;;4997055;28;20065;-67
2024/03/03 10:56:38;;;;;;;13.48;5.35;;;;;;;;;;5008718;28;20065;-67
2024/03/03 10:59:12;;;;;;;14.57;5.53;;;;;;;;;;5037131;28;20085;-67
2024/03/03 11:01:39;;;;;;;17.67;5.78;;;;;;;;;;5026156;28;20053;-66
2024/03/03 11:04:08;;;;;;;12.18;5.25;;;;;;;;;;4999018;28;20057;-67
2024/03/03 11:06:37;;;;;;;13.63;6.10;;;;;;;;;;5006179;28;20147;-67
2024/03/03 11:09:09;;;;;;;14.70;6.18;;;;;;;;;;5041230;28;20069;-67
2024/03/03 11:11:40;;;;;;;12.35;5.00;;;;;;;;;;5002241;28;20061;-67
2024/03/03 11:14:11;;;;;;;17.20;6.15;;;;;;;;;;5013055;28;20110;-67
2024/03/03 11:16:40;;;;;;;16.30;5.30;;;;;;;;;;5004596;28;20057;-68
2024/03/03 11:19:13;;;;;;;15.85;5.97;;;;;;;;;;5004874;28;20057;-68
2024/03/03 11:21:51;;;;;;;15.30;5.75;;;;;;;;;;4985657;28;20060;-68
2024/03/03 11:24:29;;;;;;;24.00;8.85;;;;;;;;;;4998048;28;20147;-68
2024/03/03 11:27:05;;;;;;;15.00;6.50;;;;;;;;;;5009633;28;20080;-68
2024/03/03 11:29:36;;;;;;;17.70;6.65;;;;;;;;;;5000981;28;20235;-68
2024/03/03 11:32:04;;;;;;;27.02;8.95;;;;;;;;;;4972462;28;20064;-69
2024/03/03 11:34:32;;;;;;;14.03;5.40;;;;;;;;;;5020953;28;21213;-68
2024/03/03 11:37:01;;;;;;;16.10;4.97;;;;;;;;;;5007748;28;20304;-68
2024/03/03 11:39:29;;;;;;;12.75;5.28;;;;;;;;;;5003535;28;20053;-66
2024/03/03 11:41:58;;;;;;;13.55;5.20;;;;;;;;;;4981676;28;20057;-66
2024/03/03 11:44:48;;;;;;;26.35;11.75;;;;;;;;;;4976486;28;20298;-67
2024/03/03 11:47:26;;;;;;;20.35;6.68;;;;;;;;;;4997025;28;20057;-65
2024/03/03 11:49:53;;;;;;;17.05;4.80;;;;;;;;;;5009569;28;20104;-68
2024/03/03 11:52:41;;;;;;;10.63;4.95;;;;;;;;;;4986244;28;20057;-66
2024/03/03 11:55:09;;;;;;;40.65;13.05;;;;;;;;;;5036941;28;20194;-68
2024/03/03 11:57:41;;;;;;;;;;;;;;;;;;5004236;28;20847;-68
2024/03/03 12:00:13;;;;;;;12.10;4.53;;;;;;;;;;5039815;28;19928;-68
2024/03/03 12:02:44;;;;;;;12.57;4.60;;;;;;;;;;5006410;28;20056;-65
2024/03/03 12:05:13;;;;;;;11.07;4.45;;;;;;;;;;5005645;28;20082;-67
2024/03/03 12:07:44;;;;;;;11.63;4.68;;;;;;;;;;5006538;28;20057;-67
2024/03/03 12:10:15;;;;;;;;;;;;;;;;;;5011235;28;20164;-67
2024/03/03 12:12:46;;;;;;;9.70;3.83;;;;;;;;;;4990506;28;19936;-68
2024/03/03 12:15:16;;;;;;;9.82;3.97;;;;;;;;;;5000741;28;20049;-69
2024/03/03 12:17:47;;;;;;;13.48;4.90;;;;;;;;;;5012321;28;20054;-67
2024/03/03 12:20:17;;;;;;;9.10;4.28;;;;;;;;;;5010760;28;20061;-67
2024/03/03 12:22:45;;;;;;;9.98;3.80;;;;;;;;;;4995330;28;20057;-67
2024/03/03 12:25:16;;;;;;;10.43;3.15;;;;;;;;;;5013952;28;20085;-68
2024/03/03 12:27:53;;;;;;;7.72;3.08;;;;;;;;;;5009508;28;20085;-69
2024/03/03 12:30:22;;;;;;;7.15;2.85;;;;;;;;;;5009441;28;20274;-67
2024/03/03 12:32:51;;;;;;;9.88;3.10;;;;;;;;;;5005451;28;20073;-68
2024/03/03 12:35:18;;;;;;;7.38;3.10;;;;;;;;;;5006101;28;20061;-68
2024/03/03 12:37:45;;;;;;;10.30;2.97;;;;;;;;;;5012603;28;20211;-67
2024/03/03 12:40:14;;;;;;;9.20;3.15;;;;;;;;;;5009294;28;20054;-67
2024/03/03 12:42:41;;;;;;;5.85;2.55;;;;;;;;;;4996626;28;20138;-68
2024/03/03 12:45:14;;;;;;;7.50;2.67;;;;;;;;;;5017151;28;20144;-67
2024/03/03 12:47:41;;;;;;;6.55;2.10;;;;;;;;;;5012561;28;20160;-67
2024/03/03 12:50:15;;;;;;;6.75;2.75;;;;;;;;;;5009980;28;20093;-66
2024/03/03 12:52:47;;;;;;;10.45;3.20;;;;;;;;;;5003258;28;20127;-70
2024/03/03 12:55:15;;;;;;;7.85;3.15;;;;;;;;;;5006439;28;21136;-68
2024/03/03 12:57:50;;;;;;;9.48;2.63;;;;;;;;;;5007608;28;20061;-65
2024/03/03 13:00:22;;;;;;;8.52;2.45;;;;;;;;;;5011872;28;20053;-67
2024/03/03 13:02:50;;;;;;;11.98;2.80;;;;;;;;;;4989560;28;20164;-67
2024/03/03 13:05:21;;;;;;;11.27;2.97;;;;;;;;;;5007180;28;20058;-68
2024/03/03 13:07:50;;;;;;;8.38;2.95;;;;;;;;;;5009875;28;20072;-67
2024/03/03 13:10:18;;;;;;;10.30;2.90;;;;;;;;;;5011645;28;20062;-67
2024/03/03 13:12:45;;;;;;;15.50;2.77;;;;;;;;;;4990986;28;20079;-67
2024/03/03 13:15:27;;;;;;;7.20;2.80;;;;;;;;;;5015205;28;20304;-67
2024/03/03 13:18:07;;;;;;;8.32;2.33;;;;;;;;;;5025008;28;20073;-66
2024/03/03 13:20:39;;;;;;;6.68;2.30;;;;;;;;;;5041882;28;20073;-66
2024/03/03 13:23:10;;;;;;;11.38;3.85;;;;;;;;;;4992042;28;20049;-68
2024/03/03 13:25:37;;;;;;;11.80;5.90;;;;;;;;;;5018798;28;20149;-67
2024/03/03 13:28:08;;;;;;;8.15;4.43;;;;;;;;;;5008719;28;20108;-67
2024/03/03 13:30:40;;;;;;;5.72;2.45;;;;;;;;;;5009751;28;20060;-67
2024/03/03 13:33:08;;;;;;;6.75;2.47;;;;;;;;;;5024390;28;20938;-65
2024/03/03 13:35:38;;;;;;;7.47;2.03;;;;;;;;;;5043052;28;20053;-66
2024/03/03 13:38:05;;;;;;;3.92;1.70;;;;;;;;;;5040960;28;20073;-66
2024/03/03 13:40:34;;;;;;;8.13;2.10;;;;;;;;;;5009898;28;20053;-67
2024/03/03 13:43:01;;;;;;;5.28;2.33;;;;;;;;;;4999505;28;20088;-69
2024/03/03 13:45:28;;;;;;;5.55;2.17;;;;;;;;;;5016253;28;20049;-66
2024/03/03 13:47:56;;;;;;;5.43;2.13;;;;;;;;;;5041022;28;20168;-67
2024/03/03 13:50:23;;;;;;;4.75;1.80;;;;;;;;;;5041397;28;20056;-66
2024/03/03 13:52:52;;;;;;;3.28;1.20;;;;;;;;;;5012056;28;20048;-66
2024/03/03 13:55:36;;;;;;;3.80;1.50;;;;;;;;;;5009818;28;20259;-67
2024/03/03 13:58:03;;;;;;;3.65;1.42;;;;;;;;;;5042215;28;20057;-68
2024/03/03 14:00:30;;;;;;;7.38;1.83;;;;;;;;;;5009114;28;20057;-67
2024/03/03 14:03:01;;;;;;;6.97;1.95;;;;;;;;;;4950927;28;20247;-67
2024/03/03 14:05:28;;;;;;;8.50;3.75;;;;;;;;;;5000365;28;20054;-68
2024/03/03 14:07:55;;;;;;;8.07;2.17;;;;;;;;;;5008360;28;20091;-67
2024/03/03 14:10:25;;;;;;;3.92;1.45;;;;;;;;;;5007874;28;20088;-66
2024/03/03 14:12:52;;;;;;;5.75;1.60;;;;;;;;;;5022557;28;20077;-67
2024/03/03 14:15:19;;;;;;;7.95;1.80;;;;;;;;;;5017397;28;20195;-66
2024/03/03 14:17:46;;;;;;;4.50;1.55;;;;;;;;;;5041839;28;20119;-68
2024/03/03 14:20:16;;;;;;;6.63;1.48;;;;;;;;;;5011429;28;20060;-68
2024/03/03 14:22:49;;;;;;;7.07;1.80;;;;;;;;;;4997178;28;20061;-67
2024/03/03 14:25:20;;;;;;;4.50;1.55;;;;;;;;;;5007300;28;20068;-67
2024/03/03 14:27:47;;;;;;;5.72;1.60;;;;;;;;;;5009978;28;20068;-66
2024/03/03 14:30:14;;;;;;;4.97;2.20;;;;;;;;;;5006851;28;20053;-67
2024/03/03 14:32:41;;;;;;;7.95;2.47;;;;;;;;;;4987456;28;20056;-67
2024/03/03 14:35:13;;;;;;;6.57;1.50;;;;;;;;;;5018758;28;20340;-69
2024/03/03 14:38:00;;;;;;;2.42;1.30;;;;;;;;;;5042641;28;20054;-66
2024/03/03 14:40:45;;;;;;;3.47;1.33;;;;;;;;;;5008745;28;20050;-67
2024/03/03 14:43:21;;;;;;;3.95;1.30;;;;;;;;;;4967152;28;20066;-67
2024/03/03 14:45:51;;;;;;;4.30;1.60;;;;;;;;;;4979594;28;20162;-67
2024/03/03 14:48:23;;;;;;;4.22;1.83;;;;;;;;;;5007874;28;20053;-67